createdAt,value
2023-03-17T00:00:45.886Z,98657.44
2023-03-17T00:03:50.509Z,98663.72
2023-03-17T00:06:53.021Z,98667.69
2023-03-17T00:09:55.954Z,98672.00
2023-03-17T00:12:57.572Z,98664.44
2023-03-17T00:16:01.602Z,98676.78
2023-03-17T00:19:04.130Z,98667.00
2023-03-17T00:22:15.306Z,98663.50
2023-03-17T00:25:20.698Z,98656.06
2023-03-17T00:28:26.200Z,98650.88
2023-03-17T00:31:30.538Z,98624.78
2023-03-17T00:34:32.549Z,98622.91
2023-03-17T00:37:34.101Z,98643.13
2023-03-17T00:40:36.781Z,98656.56
2023-03-17T00:43:39.231Z,98657.94
2023-03-17T00:46:41.651Z,98663.81
2023-03-17T00:49:49.931Z,98663.16
2023-03-17T00:52:53.440Z,98659.19
2023-03-17T00:55:55.258Z,98663.91
2023-03-17T00:58:56.896Z,98672.16
2023-03-17T01:01:58.661Z,98647.00
2023-03-17T01:05:06.226Z,98668.06
2023-03-17T01:08:10.358Z,98659.56
2023-03-17T01:11:20.124Z,98671.88
2023-03-17T01:14:22.890Z,98672.00
2023-03-17T01:17:24.550Z,98661.25
2023-03-17T01:20:29.471Z,98660.31
2023-03-17T01:23:31.828Z,98645.00
2023-03-17T01:26:33.635Z,98649.09
2023-03-17T01:29:35.241Z,98640.56
2023-03-17T01:32:37.266Z,98640.56
2023-03-17T01:35:39.740Z,98636.94
2023-03-17T01:38:42.141Z,98632.69
2023-03-17T01:41:43.716Z,98636.31
2023-03-17T01:45:05.829Z,98617.28
2023-03-17T01:48:07.614Z,98627.50
2023-03-17T01:51:13.795Z,98622.63
2023-03-17T01:54:39.971Z,98625.81
2023-03-17T01:57:46.759Z,98629.66
2023-03-17T02:00:48.836Z,98626.41
2023-03-17T02:03:51.994Z,98636.84
2023-03-17T02:06:58.471Z,98662.09
2023-03-17T02:10:00.946Z,98657.66
2023-03-17T02:13:05.579Z,98659.38
2023-03-17T02:16:07.546Z,98657.00
2023-03-17T02:19:09.566Z,98656.38
2023-03-17T02:22:11.518Z,98638.66
2023-03-17T02:25:14.101Z,98624.75
2023-03-17T02:28:21.534Z,98625.53
2023-03-17T02:31:26.336Z,98616.09
2023-03-17T02:34:28.005Z,98606.47
2023-03-17T02:37:29.908Z,98585.59
2023-03-17T02:40:32.080Z,98612.00
2023-03-17T02:43:33.914Z,98617.03
2023-03-17T02:46:36.189Z,98617.66
2023-03-17T02:49:40.705Z,98605.78
2023-03-17T02:52:42.305Z,98599.00
2023-03-17T02:55:43.930Z,98589.25
2023-03-17T02:58:45.532Z,98605.03
2023-03-17T03:01:48.595Z,98608.97
2023-03-17T03:04:50.434Z,98596.16
2023-03-17T03:07:52.415Z,98588.06
2023-03-17T03:10:54.993Z,98593.06
2023-03-17T03:13:56.996Z,98577.13
2023-03-17T03:16:58.570Z,98580.16
2023-03-17T03:20:00.222Z,98573.19
2023-03-17T03:23:01.928Z,98573.81
2023-03-17T03:26:03.679Z,98573.78
2023-03-17T03:29:05.375Z,98591.78
2023-03-17T03:32:07.363Z,98585.06
2023-03-17T03:35:09.430Z,98578.03
2023-03-17T03:38:12.628Z,98582.91
2023-03-17T03:41:14.325Z,98583.34
2023-03-17T03:44:16.159Z,98593.13
2023-03-17T03:47:17.734Z,98572.75
2023-03-17T03:50:20.907Z,98578.72
2023-03-17T03:53:22.710Z,98576.31
2023-03-17T03:56:24.478Z,98563.63
2023-03-17T03:59:26.560Z,98589.38
2023-03-17T04:02:28.265Z,98598.38
2023-03-17T04:05:29.966Z,98588.31
2023-03-17T04:08:31.882Z,98593.28
2023-03-17T04:11:36.082Z,98594.28
2023-03-17T04:14:37.814Z,98585.81
2023-03-17T04:17:39.543Z,98568.47
2023-03-17T04:20:41.198Z,98586.56
2023-03-17T04:23:42.868Z,98568.88
2023-03-17T04:26:44.415Z,98578.78
2023-03-17T04:29:46.014Z,98593.28
2023-03-17T04:32:47.619Z,98580.22
2023-03-17T04:35:49.279Z,98568.53
2023-03-17T04:38:51.101Z,98582.91
2023-03-17T04:41:52.820Z,98590.59
2023-03-17T04:44:54.488Z,98594.75
2023-03-17T04:47:56.122Z,98577.84
2023-03-17T04:50:57.863Z,98584.00
2023-03-17T04:54:00.630Z,98581.47
2023-03-17T04:57:02.214Z,98575.81
2023-03-17T05:00:09.868Z,98576.19
2023-03-17T05:03:26.056Z,98598.41
2023-03-17T05:06:28.477Z,98595.44
2023-03-17T05:09:30.097Z,98595.84
2023-03-17T05:12:31.816Z,98605.53
2023-03-17T05:15:33.530Z,98604.22
2023-03-17T05:18:36.184Z,98576.28
2023-03-17T05:21:37.925Z,98598.72
2023-03-17T05:24:39.517Z,98590.31
2023-03-17T05:27:41.537Z,98601.81
2023-03-17T05:30:43.787Z,98606.47
2023-03-17T05:33:46.442Z,98622.75
2023-03-17T05:36:48.043Z,98595.16
2023-03-17T05:39:49.684Z,98614.34
2023-03-17T05:42:51.656Z,98628.03
2023-03-17T05:45:53.743Z,98624.03
2023-03-17T05:48:55.435Z,98616.25
2023-03-17T05:51:57.402Z,98600.72
2023-03-17T05:54:59.026Z,98610.75
2023-03-17T05:58:00.950Z,98605.69
2023-03-17T06:01:02.726Z,98623.03
2023-03-17T06:04:04.500Z,98603.09
2023-03-17T06:07:06.703Z,98599.00
2023-03-17T06:10:09.123Z,98624.50
2023-03-17T06:13:11.737Z,98625.13
2023-03-17T06:16:13.736Z,98620.16
2023-03-17T06:19:15.443Z,98634.25
2023-03-17T06:22:17.131Z,98635.00
2023-03-17T06:25:18.962Z,98619.50
2023-03-17T06:28:20.632Z,98637.97
2023-03-17T06:31:22.413Z,98645.22
2023-03-17T06:34:24.612Z,98643.00
2023-03-17T06:37:26.533Z,98654.19
2023-03-17T06:40:28.432Z,98648.19
2023-03-17T06:43:30.053Z,98645.34
2023-03-17T06:46:32.516Z,98631.44
2023-03-17T06:49:34.336Z,98636.19
2023-03-17T06:52:36.780Z,98639.50
2023-03-17T06:55:38.569Z,98622.78
2023-03-17T06:58:40.231Z,98619.00
2023-03-17T07:01:41.832Z,98616.97
2023-03-17T07:04:43.607Z,98621.88
2023-03-17T07:07:45.555Z,98635.81
2023-03-17T07:10:47.203Z,98643.69
2023-03-17T07:13:48.866Z,98625.53
2023-03-17T07:16:50.490Z,98647.06
2023-03-17T07:19:52.431Z,98656.06
2023-03-17T07:22:54.100Z,98666.94
2023-03-17T07:25:57.443Z,98654.31
2023-03-17T07:29:01.396Z,98638.22
2023-03-17T07:32:06.167Z,98628.41
2023-03-17T07:35:08.216Z,98631.28
2023-03-17T07:38:10.716Z,98644.69
2023-03-17T07:41:12.347Z,98636.47
2023-03-17T07:44:13.984Z,98617.16
2023-03-17T07:47:15.763Z,98619.63
2023-03-17T07:50:18.620Z,98618.03
2023-03-17T07:53:20.333Z,98621.25
2023-03-17T07:56:22.119Z,98621.53
2023-03-17T07:59:23.895Z,98615.25
2023-03-17T08:02:26.579Z,98617.88
2023-03-17T08:05:28.287Z,98601.78
2023-03-17T08:08:29.939Z,98618.66
2023-03-17T08:11:31.548Z,98615.88
2023-03-17T08:14:33.141Z,98622.56
2023-03-17T08:17:36.572Z,98629.66
2023-03-17T08:20:39.112Z,98624.34
2023-03-17T08:23:40.708Z,98605.63
2023-03-17T08:26:43.236Z,98627.94
2023-03-17T08:29:45.297Z,98619.53
2023-03-17T08:32:48.089Z,98631.44
2023-03-17T08:35:50.124Z,98635.91
2023-03-17T08:38:53.138Z,98636.59
2023-03-17T08:41:54.743Z,98625.06
2023-03-17T08:44:56.490Z,98619.41
2023-03-17T08:47:58.398Z,98609.38
2023-03-17T08:51:00.115Z,98614.38
2023-03-17T08:54:02.366Z,98609.47
2023-03-17T08:57:04.162Z,98604.72
2023-03-17T09:00:11.166Z,98614.59
2023-03-17T09:03:13.852Z,98596.88
2023-03-17T09:06:15.667Z,98609.88
2023-03-17T09:09:18.241Z,98601.31
2023-03-17T09:12:19.818Z,98595.09
2023-03-17T09:15:22.359Z,98606.31
2023-03-17T09:18:24.098Z,98605.47
2023-03-17T09:21:25.723Z,98594.03
2023-03-17T09:24:27.360Z,98602.41
2023-03-17T09:27:28.927Z,98605.00
2023-03-17T09:30:31.224Z,98597.22
2023-03-17T09:33:33.277Z,98582.16
2023-03-17T09:36:34.889Z,98588.59
2023-03-17T09:39:36.504Z,98584.59
2023-03-17T09:42:47.589Z,98593.00
2023-03-17T09:45:49.303Z,98583.47
2023-03-17T09:49:17.114Z,98582.66
2023-03-17T09:52:25.660Z,98577.75
2023-03-17T09:55:31.325Z,98575.03
2023-03-17T09:58:35.059Z,98574.75
2023-03-17T10:01:41.033Z,98571.03
2023-03-17T10:04:45.004Z,98574.88
2023-03-17T10:08:27.087Z,98576.75
2023-03-17T10:11:40.536Z,98557.63
2023-03-17T10:14:54.408Z,98552.81
2023-03-17T10:17:56.734Z,98570.03
2023-03-17T10:21:05.101Z,98570.22
2023-03-17T10:24:07.456Z,98562.88
2023-03-17T10:27:13.709Z,98552.56
2023-03-17T10:30:17.406Z,98555.75
2023-03-17T10:33:19.665Z,98556.84
2023-03-17T10:36:37.745Z,98552.44
2023-03-17T10:39:49.112Z,98544.34
2023-03-17T10:43:18.982Z,98542.16
2023-03-17T10:46:25.871Z,98556.09
2023-03-17T10:49:35.188Z,98559.00
2023-03-17T10:52:40.799Z,98552.44
2023-03-17T10:55:49.862Z,98545.22
2023-03-17T10:58:53.536Z,98534.47
2023-03-17T11:02:17.054Z,98539.94
2023-03-17T11:05:22.338Z,98531.72
2023-03-17T11:08:24.307Z,98534.66
2023-03-17T11:11:26.306Z,98527.75
2023-03-17T11:14:28.374Z,98529.06
2023-03-17T11:17:48.280Z,98515.84
2023-03-17T11:20:58.654Z,98513.78
2023-03-17T11:24:14.136Z,98498.44
2023-03-17T11:27:26.322Z,98506.59
2023-03-17T11:30:38.452Z,98508.31
2023-03-17T11:33:51.197Z,98509.75
2023-03-17T11:37:12.031Z,98493.91
2023-03-17T11:40:21.749Z,98492.22
2023-03-17T11:43:47.749Z,98499.03
2023-03-17T11:47:15.240Z,98489.03
2023-03-17T11:50:40.204Z,98499.28
2023-03-17T11:53:57.012Z,98470.81
2023-03-17T11:57:02.975Z,98502.84
2023-03-17T12:00:07.034Z,98495.91
2023-03-17T12:03:20.424Z,98500.97
2023-03-17T12:06:28.829Z,98496.69
2023-03-17T12:09:37.336Z,98487.72
2023-03-17T12:12:47.195Z,98474.94
2023-03-17T12:15:55.947Z,98480.81
2023-03-17T12:19:16.533Z,98469.47
2023-03-17T12:22:28.506Z,98470.25
2023-03-17T12:25:45.051Z,98470.25
2023-03-17T12:28:50.011Z,98467.91
2023-03-17T12:32:08.364Z,98457.31
2023-03-17T12:35:29.324Z,98455.00
2023-03-17T12:38:39.279Z,98452.31
2023-03-17T12:41:59.701Z,98443.69
2023-03-17T12:45:16.676Z,98453.47
2023-03-17T12:48:50.345Z,98459.34
2023-03-17T12:52:21.188Z,98461.69
2023-03-17T12:55:25.553Z,98463.25
2023-03-17T12:58:40.916Z,98456.19
2023-03-17T13:01:54.616Z,98457.34
2023-03-17T13:05:00.658Z,98444.41
2023-03-17T13:08:04.304Z,98459.72
2023-03-17T13:11:17.736Z,98448.38
2023-03-17T13:14:27.234Z,98445.97
2023-03-17T13:17:28.845Z,98435.00
2023-03-17T13:20:39.123Z,98447.53
2023-03-17T13:23:48.179Z,98439.50
2023-03-17T13:27:01.645Z,98433.13
2023-03-17T13:30:26.830Z,98437.09
2023-03-17T13:33:32.603Z,98429.59
2023-03-17T13:36:52.506Z,98427.75
2023-03-17T13:40:19.698Z,98415.38
2023-03-17T13:43:56.033Z,98422.13
2023-03-17T13:47:15.948Z,98413.13
2023-03-17T13:50:40.162Z,98409.59
2023-03-17T13:53:55.472Z,98400.53
2023-03-17T13:57:25.569Z,98408.00
2023-03-17T14:00:33.329Z,98405.69
2023-03-17T14:03:45.998Z,98410.00
2023-03-17T14:06:51.432Z,98397.91
2023-03-17T14:09:59.281Z,98399.91
2023-03-17T14:13:12.333Z,98418.72
2023-03-17T14:16:20.154Z,98416.00
2023-03-17T14:19:28.206Z,98410.84
2023-03-17T14:22:29.784Z,98422.13
2023-03-17T14:25:38.659Z,98420.19
2023-03-17T14:28:40.631Z,98423.00
2023-03-17T14:31:47.456Z,98410.50
2023-03-17T14:34:56.273Z,98422.25
2023-03-17T14:37:58.411Z,98417.56
2023-03-17T14:41:16.565Z,98417.97
2023-03-17T14:44:18.146Z,98408.56
2023-03-17T14:47:23.798Z,98411.72
2023-03-17T14:50:31.618Z,98407.41
2023-03-17T14:53:35.105Z,98405.84
2023-03-17T14:56:47.896Z,98402.31
2023-03-17T15:00:31.957Z,98392.97
2023-03-17T15:03:51.963Z,98401.53
2023-03-17T15:06:56.844Z,98396.84
2023-03-17T15:10:02.325Z,98391.38
2023-03-17T15:13:06.266Z,98384.75
2023-03-17T15:16:23.152Z,98394.09
2023-03-17T15:19:28.952Z,98390.63
2023-03-17T15:22:41.562Z,98396.84
2023-03-17T15:25:46.607Z,98392.97
2023-03-17T15:28:48.329Z,98396.88
2023-03-17T15:31:50.123Z,98392.94
2023-03-17T15:34:54.894Z,98383.19
2023-03-17T15:37:57.162Z,98380.44
2023-03-17T15:40:58.830Z,98391.38
2023-03-17T15:44:00.735Z,98388.25
2023-03-17T15:47:02.956Z,98382.78
2023-03-17T15:50:16.370Z,98378.50
2023-03-17T15:53:18.489Z,98377.31
2023-03-17T15:56:21.776Z,98380.44
2023-03-17T15:59:23.449Z,98377.31
2023-03-17T16:02:28.770Z,98377.31
2023-03-17T16:05:32.651Z,98372.63
2023-03-17T16:08:34.453Z,98381.59
2023-03-17T16:11:36.030Z,98385.91
2023-03-17T16:14:38.153Z,98393.28
2023-03-17T16:17:39.730Z,98398.75
2023-03-17T16:20:44.327Z,98403.78
2023-03-17T16:23:47.138Z,98398.34
2023-03-17T16:26:50.423Z,98402.59
2023-03-17T16:29:52.059Z,98400.63
2023-03-17T16:32:54.669Z,98385.84
2023-03-17T16:35:57.473Z,98395.22
2023-03-17T16:39:00.039Z,98401.41
2023-03-17T16:42:01.744Z,98407.66
2023-03-17T16:45:03.583Z,98409.59
2023-03-17T16:48:05.590Z,98423.25
2023-03-17T16:51:07.320Z,98436.84
2023-03-17T16:54:10.620Z,98418.88
2023-03-17T16:57:12.832Z,98424.25
2023-03-17T17:00:18.880Z,98442.97
2023-03-17T17:03:20.766Z,98433.16
2023-03-17T17:06:23.535Z,98433.50
2023-03-17T17:09:25.220Z,98424.53
2023-03-17T17:12:26.749Z,98421.34
2023-03-17T17:15:30.446Z,98433.06
2023-03-17T17:18:32.085Z,98435.81
2023-03-17T17:21:33.910Z,98449.41
2023-03-17T17:24:35.692Z,98453.19
2023-03-17T17:27:39.366Z,98458.44
2023-03-17T17:30:45.020Z,98443.53
2023-03-17T17:33:46.724Z,98455.13
2023-03-17T17:36:48.355Z,98435.25
2023-03-17T17:39:51.567Z,98443.47
2023-03-17T17:42:53.793Z,98439.69
2023-03-17T17:45:55.757Z,98436.97
2023-03-17T17:48:57.498Z,98445.81
2023-03-17T17:51:59.101Z,98452.72
2023-03-17T17:55:01.403Z,98478.47
2023-03-17T17:58:03.104Z,98483.81
2023-03-17T18:01:05.545Z,98479.53
2023-03-17T18:04:07.509Z,98490.19
2023-03-17T18:07:09.372Z,98489.16
2023-03-17T18:10:17.994Z,98490.00
2023-03-17T18:13:21.985Z,98489.75
2023-03-17T18:16:29.045Z,98501.31
2023-03-17T18:19:31.160Z,98500.13
2023-03-17T18:22:33.569Z,98489.72
2023-03-17T18:25:35.950Z,98488.47
2023-03-17T18:28:37.587Z,98484.00
2023-03-17T18:31:46.569Z,98501.00
2023-03-17T18:34:48.589Z,98503.56
2023-03-17T18:37:51.808Z,98486.59
2023-03-17T18:40:53.426Z,98490.94
2023-03-17T18:43:55.107Z,98475.44
2023-03-17T18:46:57.145Z,98494.25
2023-03-17T18:49:59.695Z,98504.16
2023-03-17T18:53:01.652Z,98503.88
2023-03-17T18:56:03.215Z,98497.31
2023-03-17T18:59:04.808Z,98502.38
2023-03-17T19:02:07.195Z,98496.34
2023-03-17T19:05:09.793Z,98506.09
2023-03-17T19:08:11.633Z,98488.53
2023-03-17T19:11:15.319Z,98513.28
2023-03-17T19:14:17.087Z,98503.66
2023-03-17T19:17:18.674Z,98499.78
2023-03-17T19:20:20.398Z,98493.81
2023-03-17T19:23:22.337Z,98494.38
2023-03-17T19:26:24.162Z,98509.28
2023-03-17T19:29:27.760Z,98502.16
2023-03-17T19:32:29.367Z,98507.50
2023-03-17T19:35:31.551Z,98501.50
2023-03-17T19:38:33.224Z,98496.94
2023-03-17T19:41:35.031Z,98504.72
2023-03-17T19:44:36.961Z,98501.50
2023-03-17T19:47:38.631Z,98509.16
2023-03-17T19:50:40.771Z,98497.16
2023-03-17T19:53:42.395Z,98516.34
2023-03-17T19:56:43.983Z,98501.38
2023-03-17T19:59:45.563Z,98489.72
2023-03-17T20:02:47.615Z,98509.63
2023-03-17T20:05:52.173Z,98506.16
2023-03-17T20:08:54.235Z,98514.59
2023-03-17T20:11:56.530Z,98501.44
2023-03-17T20:14:58.394Z,98504.66
2023-03-17T20:17:59.958Z,98508.88
2023-03-17T20:21:05.604Z,98495.44
2023-03-17T20:24:08.733Z,98506.69
2023-03-17T20:27:11.364Z,98500.47
2023-03-17T20:30:13.284Z,98504.97
2023-03-17T20:33:15.028Z,98505.00
2023-03-17T20:36:16.925Z,98505.16
2023-03-17T20:39:21.457Z,98512.50
2023-03-17T20:42:23.659Z,98518.53
2023-03-17T20:45:25.637Z,98529.63
2023-03-17T20:48:27.327Z,98527.56
2023-03-17T20:51:28.941Z,98539.22
2023-03-17T20:54:30.642Z,98541.19
2023-03-17T20:57:33.147Z,98542.28
2023-03-17T21:00:34.786Z,98542.97
2023-03-17T21:03:37.217Z,98541.28
2023-03-17T21:06:39.652Z,98547.63
2023-03-17T21:09:41.386Z,98553.16
2023-03-17T21:12:43.845Z,98560.28
2023-03-17T21:15:45.445Z,98558.97
2023-03-17T21:18:47.973Z,98571.72
2023-03-17T21:21:49.533Z,98562.97
2023-03-17T21:24:52.013Z,98575.09
2023-03-17T21:27:53.956Z,98548.00
2023-03-17T21:30:55.560Z,98573.53
2023-03-17T21:33:57.189Z,98575.34
2023-03-17T21:36:59.780Z,98569.75
2023-03-17T21:40:01.474Z,98561.72
2023-03-17T21:43:03.761Z,98568.72
2023-03-17T21:46:05.765Z,98570.41
2023-03-17T21:49:08.043Z,98576.91
2023-03-17T21:52:10.459Z,98577.34
2023-03-17T21:55:12.431Z,98563.44
2023-03-17T21:58:13.985Z,98556.28
2023-03-17T22:01:17.484Z,98566.78
2023-03-17T22:04:19.195Z,98566.97
2023-03-17T22:07:20.888Z,98552.34
2023-03-17T22:10:22.509Z,98572.13
2023-03-17T22:13:24.413Z,98583.06
2023-03-17T22:16:26.132Z,98578.66
2023-03-17T22:19:28.672Z,98586.19
2023-03-17T22:22:30.337Z,98573.91
2023-03-17T22:25:31.958Z,98573.91
2023-03-17T22:28:33.616Z,98577.53
2023-03-17T22:31:35.587Z,98579.44
2023-03-17T22:34:37.496Z,98591.44
2023-03-17T22:37:40.386Z,98582.50
2023-03-17T22:40:42.033Z,98600.75
2023-03-17T22:43:44.117Z,98587.53
2023-03-17T22:46:46.090Z,98575.75
2023-03-17T22:49:47.922Z,98586.09
2023-03-17T22:52:49.730Z,98574.72
2023-03-17T22:55:51.373Z,98582.00
2023-03-17T22:58:54.333Z,98582.63
2023-03-17T23:01:56.036Z,98576.34
2023-03-17T23:04:58.793Z,98577.50
2023-03-17T23:08:00.460Z,98587.56
2023-03-17T23:11:06.509Z,98585.56
2023-03-17T23:14:08.592Z,98589.03
2023-03-17T23:17:10.259Z,98587.81
2023-03-17T23:20:12.375Z,98591.25
2023-03-17T23:23:14.393Z,98605.16
2023-03-17T23:26:16.574Z,98614.34
2023-03-17T23:29:18.936Z,98602.91
2023-03-17T23:32:21.000Z,98607.19
2023-03-17T23:35:23.152Z,98627.63
2023-03-17T23:38:25.185Z,98623.94
2023-03-17T23:41:27.030Z,98626.06
2023-03-17T23:44:28.730Z,98617.50
2023-03-17T23:47:30.615Z,98630.38
2023-03-17T23:50:32.839Z,98632.06
2023-03-17T23:53:34.615Z,98636.50
2023-03-17T23:56:36.558Z,98627.84
2023-03-17T23:59:38.559Z,98634.72
